METAR Formatted Surface Weather Observation
Issued by NWS

Home | Current Version | Previous Version | Text Only | Print | Product List | Glossary On
Versions: 1 2 3 4 5 6 7 8 9 10 11 12 13 14 15 16 17 18 19 20 21 22 23 24
000
SAUS45 KPUB 011403 COR
MTRSPD
METAR KSPD 011356Z AUTO 00000KT 22/13 A3008 RMK AO1 SLP119 T02170133



USA.gov is the U.S. government's official web portal to all federal, state and local government web resources and services.